Time;durP1;ratioP1;P1;durP2;ratioP2;P2;SDS_P1;SDS_P2;PMS_P1;PMS_P2;Temp;Humidity;BMP_temperature;BMP_pressure;BME280_temperature;BME280_humidity;BME280_pressure;Samples;Min_cycle;Max_cycle;Signal;HPM_P1;HPM_P2
2023/09/24 00:00:55;;;;;;;0.30;0.20;;;;;;;9.41;97.92;101018.53;4984016;28;20453;-53
2023/09/24 00:03:22;;;;;;;0.30;0.20;;;;;;;9.39;98.77;101007.06;4982476;28;20901;-52
2023/09/24 00:05:48;;;;;;;0.30;0.20;;;;;;;9.41;98.60;101011.47;4986999;28;20489;-51
2023/09/24 00:08:15;;;;;;;0.30;0.20;;;;;;;9.35;98.49;101018.63;4989274;28;20934;-52
2023/09/24 00:10:46;;;;;;;0.30;0.20;;;;;;;9.21;98.51;101024.09;4984867;28;20453;-52
2023/09/24 00:13:13;;;;;;;0.30;0.20;;;;;;;9.19;98.25;101026.78;4989822;28;20453;-52
2023/09/24 00:15:40;;;;;;;0.30;0.20;;;;;;;9.29;98.27;101029.28;4985298;28;20469;-52
2023/09/24 00:18:06;;;;;;;0.30;0.20;;;;;;;9.16;98.40;101033.84;4982488;28;20544;-53
2023/09/24 00:20:33;;;;;;;0.30;0.20;;;;;;;8.96;98.51;101031.44;4986422;28;20457;-52
2023/09/24 00:22:59;;;;;;;0.30;0.20;;;;;;;9.04;98.99;101033.97;4989074;28;20462;-53
2023/09/24 00:25:26;;;;;;;0.30;0.20;;;;;;;9.17;98.96;101039.13;4985905;28;20473;-52
2023/09/24 00:27:54;;;;;;;0.30;0.20;;;;;;;9.23;99.28;101042.66;4982351;28;20584;-51
2023/09/24 00:30:21;;;;;;;0.30;0.20;;;;;;;9.28;98.55;101041.69;4984782;28;20901;-52
2023/09/24 00:32:47;;;;;;;0.30;0.20;;;;;;;9.32;98.01;101046.09;4989000;28;20455;-51
2023/09/24 00:35:15;;;;;;;0.30;0.20;;;;;;;9.04;97.45;101045.47;4986550;28;20560;-52
2023/09/24 00:37:42;;;;;;;0.30;0.20;;;;;;;8.93;98.97;101052.69;4982070;28;20537;-52
2023/09/24 00:40:10;;;;;;;0.30;0.20;;;;;;;8.93;99.44;101055.31;4984292;28;20891;-51
2023/09/24 00:42:37;;;;;;;0.30;0.20;;;;;;;8.99;99.37;101060.56;4988428;28;20450;-51
2023/09/24 00:45:10;;;;;;;0.30;0.20;;;;;;;8.99;98.65;101057.91;4986760;28;20477;-53
2023/09/24 00:47:42;;;;;;;0.30;0.20;;;;;;;9.02;98.38;101057.00;4982127;28;20592;-52
2023/09/24 00:50:10;;;;;;;0.30;0.20;;;;;;;8.86;97.91;101057.13;4981911;28;20970;-51
2023/09/24 00:52:37;;;;;;;0.30;0.20;;;;;;;8.90;98.17;101050.91;4987981;28;20893;-52
2023/09/24 00:55:06;;;;;;;0.30;0.20;;;;;;;8.90;97.87;101048.25;4988207;28;20471;-52
2023/09/24 00:57:33;;;;;;;0.30;0.20;;;;;;;8.92;98.08;101050.03;4982852;28;20445;-52
2023/09/24 01:00:12;;;;;;;0.30;0.20;;;;;;;8.59;97.84;101047.66;4971156;28;20459;-52
2023/09/24 01:02:39;;;;;;;0.30;0.20;;;;;;;8.76;98.11;101043.97;4985688;28;21010;-52
2023/09/24 01:05:10;;;;;;;0.30;0.20;;;;;;;8.74;98.77;101040.47;4988352;28;20970;-50
2023/09/24 01:07:37;;;;;;;0.30;0.20;;;;;;;8.61;98.51;101040.56;4985210;28;20861;-50
2023/09/24 01:10:07;;;;;;;0.30;0.20;;;;;;;8.63;98.87;101043.19;4981191;28;20823;-49
2023/09/24 01:12:33;;;;;;;0.30;0.20;;;;;;;8.63;98.32;101040.56;4991859;28;20560;-49
2023/09/24 01:15:00;;;;;;;0.30;0.20;;;;;;;8.51;98.53;101035.38;4981332;28;20481;-49
2023/09/24 01:17:27;;;;;;;0.30;0.20;;;;;;;8.39;98.77;101041.66;4983958;28;20509;-48
2023/09/24 01:19:54;;;;;;;0.30;0.20;;;;;;;8.41;99.44;101037.22;4987951;28;20458;-49
2023/09/24 01:22:21;;;;;;;0.30;0.20;;;;;;;8.52;99.21;101045.97;4986055;28;20544;-49
2023/09/24 01:24:48;;;;;;;0.30;0.20;;;;;;;8.59;98.06;101042.34;4981443;28;20543;-49
2023/09/24 01:27:14;;;;;;;0.30;0.20;;;;;;;8.50;98.46;101049.53;4983017;28;20582;-49
2023/09/24 01:29:40;;;;;;;0.30;0.20;;;;;;;8.43;98.80;101046.03;4987526;28;20452;-49
2023/09/24 01:32:08;;;;;;;0.30;0.20;;;;;;;8.46;98.46;101053.06;4986640;28;20516;-50
2023/09/24 01:34:34;;;;;;;0.30;0.20;;;;;;;8.34;98.86;101046.09;4980943;28;20822;-51
2023/09/24 01:37:08;;;;;;;0.30;0.20;;;;;;;8.44;99.36;101050.44;4982027;28;20474;-49
2023/09/24 01:39:36;;;;;;;0.30;0.20;;;;;;;8.50;98.91;101047.75;4987602;28;20544;-50
2023/09/24 01:42:03;;;;;;;0.30;0.20;;;;;;;8.47;99.14;101053.06;4987493;28;20460;-49
2023/09/24 01:44:33;;;;;;;0.30;0.20;;;;;;;8.38;99.91;101052.25;4981250;28;20968;-49
2023/09/24 01:47:03;;;;;;;0.30;0.20;;;;;;;8.48;100.00;101054.81;4980555;28;20494;-49
2023/09/24 01:49:31;;;;;;;0.30;0.20;;;;;;;8.50;99.85;101058.34;4985916;28;20450;-50
2023/09/24 01:51:58;;;;;;;0.30;0.20;;;;;;;8.48;100.00;101059.22;4987600;28;20503;-49
2023/09/24 01:54:25;;;;;;;0.30;0.20;;;;;;;8.51;99.69;101067.19;4982763;28;20445;-49
2023/09/24 01:56:54;;;;;;;0.30;0.20;;;;;;;8.38;99.77;101069.03;4980166;28;20934;-49
2023/09/24 01:59:20;;;;;;;0.30;0.20;;;;;;;8.41;99.55;101068.13;4979019;28;20458;-50
2023/09/24 02:01:47;;;;;;;0.30;0.20;;;;;;;8.41;99.52;101071.66;4987128;28;21010;-49
2023/09/24 02:04:14;;;;;;;0.30;0.20;;;;;;;8.44;99.29;101074.28;4982957;28;20449;-49
2023/09/24 02:06:41;;;;;;;0.30;0.20;;;;;;;8.27;99.25;101081.44;4975077;28;20493;-51
2023/09/24 02:09:08;;;;;;;0.30;0.20;;;;;;;8.44;100.00;101078.69;4984455;28;20951;-49
2023/09/24 02:11:34;;;;;;;0.30;0.20;;;;;;;8.38;99.46;101069.03;4983166;28;21198;-49
2023/09/24 02:14:01;;;;;;;0.30;0.20;;;;;;;8.39;99.45;101078.75;4984306;28;20454;-49
2023/09/24 02:16:27;;;;;;;0.30;0.20;;;;;;;8.40;99.09;101074.31;4986647;28;20475;-51
2023/09/24 02:18:54;;;;;;;0.30;0.20;;;;;;;8.33;99.11;101076.97;4983431;28;20465;-49
2023/09/24 02:21:20;;;;;;;0.30;0.20;;;;;;;8.26;99.20;101079.69;4980224;28;20453;-49
2023/09/24 02:23:47;;;;;;;0.30;0.20;;;;;;;8.27;99.62;101078.78;4983915;28;20825;-49
2023/09/24 02:26:13;;;;;;;0.30;0.20;;;;;;;8.29;98.43;101082.28;4986591;28;20491;-49
2023/09/24 02:28:40;;;;;;;0.30;0.20;;;;;;;8.20;98.84;101083.22;4983684;28;20493;-49
2023/09/24 02:31:07;;;;;;;0.30;0.20;;;;;;;8.29;98.93;101090.25;4979802;28;20540;-49
2023/09/24 02:33:35;;;;;;;0.30;0.20;;;;;;;8.27;98.79;101089.38;4983143;28;20454;-50
2023/09/24 02:36:03;;;;;;;0.30;0.20;;;;;;;8.22;99.05;101083.22;4986795;28;20847;-50
2023/09/24 02:38:29;;;;;;;0.30;0.20;;;;;;;8.25;99.01;101085.88;4984530;28;20454;-50
2023/09/24 02:40:56;;;;;;;0.30;0.20;;;;;;;7.99;99.04;101086.88;4980162;28;20492;-49
2023/09/24 02:43:25;;;;;;;0.30;0.20;;;;;;;8.23;99.66;101091.19;4982232;28;20533;-49
2023/09/24 02:45:51;;;;;;;0.30;0.20;;;;;;;8.25;99.59;101093.81;4986241;28;20474;-50
2023/09/24 02:48:18;;;;;;;0.30;0.20;;;;;;;8.27;99.12;101097.31;4984989;28;20571;-50
2023/09/24 02:50:45;;;;;;;0.30;0.20;;;;;;;8.31;99.14;101099.06;4980032;28;20460;-49
2023/09/24 02:53:11;;;;;;;0.30;0.20;;;;;;;8.09;98.61;101095.66;4981035;28;20461;-50
2023/09/24 02:55:38;;;;;;;0.30;0.20;;;;;;;8.02;98.12;101096.56;4986251;28;20523;-49
2023/09/24 02:58:05;;;;;;;0.30;0.20;;;;;;;8.03;98.39;101095.69;4981171;28;20827;-50
2023/09/24 03:00:36;;;;;;;0.30;0.20;;;;;;;7.97;99.84;101104.56;4979289;28;20457;-50
2023/09/24 03:03:09;;;;;;;0.30;0.20;;;;;;;7.95;99.27;101101.03;4979761;28;20536;-50
2023/09/24 03:05:36;;;;;;;0.30;0.20;;;;;;;7.91;98.91;101101.03;4961694;28;20484;-52
2023/09/24 03:08:04;;;;;;;0.30;0.20;;;;;;;8.01;99.43;101095.69;4986304;28;20489;-50
2023/09/24 03:10:32;;;;;;;0.30;0.20;;;;;;;7.91;99.50;101086.03;4984872;28;20508;-51
2023/09/24 03:12:59;;;;;;;0.30;0.20;;;;;;;7.95;99.67;101095.75;4992746;28;21021;-50
2023/09/24 03:15:26;;;;;;;0.30;0.20;;;;;;;8.05;99.06;101099.19;4984713;28;20470;-50
2023/09/24 03:17:53;;;;;;;0.30;0.20;;;;;;;8.10;98.39;101099.19;4983730;28;20454;-51
2023/09/24 03:20:20;;;;;;;0.30;0.20;;;;;;;7.80;98.67;101098.44;4988622;28;20461;-50
2023/09/24 03:22:52;;;;;;;0.30;0.20;;;;;;;7.85;99.09;101109.91;4990077;28;20907;-50
2023/09/24 03:25:27;;;;;;;0.30;0.20;;;;;;;7.78;99.60;101112.56;4986137;28;20465;-50
2023/09/24 03:27:56;;;;;;;0.30;0.20;;;;;;;7.79;99.03;101119.63;4983722;28;20493;-50
2023/09/24 03:30:24;;;;;;;0.30;0.20;;;;;;;7.67;99.82;101112.59;4985864;28;20477;-51
2023/09/24 03:32:51;;;;;;;0.30;0.20;;;;;;;7.80;99.50;101124.00;4990024;28;20466;-50
2023/09/24 03:35:24;;;;;;;0.30;0.20;;;;;;;7.79;99.44;101125.78;4987815;28;20561;-50
2023/09/24 03:37:52;;;;;;;0.30;0.20;;;;;;;7.82;98.67;101130.22;4983629;28;20456;-50
2023/09/24 03:40:21;;;;;;;0.30;0.20;;;;;;;7.64;98.89;101131.13;4984069;28;20482;-49
2023/09/24 03:42:47;;;;;;;0.30;0.20;;;;;;;7.56;99.72;101133.81;4989857;28;20591;-50
2023/09/24 03:45:16;;;;;;;0.30;0.20;;;;;;;7.54;100.00;101140.88;4989589;28;20568;-50
2023/09/24 03:47:45;;;;;;;0.30;0.20;;;;;;;7.67;100.00;101131.13;4989177;28;20944;-50
2023/09/24 03:50:16;;;;;;;0.30;0.20;;;;;;;7.73;100.00;101132.00;4989471;28;20456;-50
2023/09/24 03:52:44;;;;;;;0.30;0.20;;;;;;;7.61;99.34;101124.09;4984717;28;20445;-50
2023/09/24 03:55:11;;;;;;;0.30;0.20;;;;;;;7.59;100.00;101131.16;4982742;28;20995;-50
2023/09/24 03:57:38;;;;;;;0.30;0.20;;;;;;;7.73;100.00;101132.00;4988071;28;20477;-50
2023/09/24 04:00:11;;;;;;;0.30;0.20;;;;;;;7.76;99.68;101132.88;4978018;28;20456;-50
2023/09/24 04:02:40;;;;;;;0.30;0.20;;;;;;;7.81;99.41;101139.91;4987060;28;20449;-50
2023/09/24 04:05:14;;;;;;;0.30;0.20;;;;;;;7.70;99.54;101134.66;4988883;28;20474;-50
2023/09/24 04:07:41;;;;;;;0.30;0.20;;;;;;;7.63;99.32;101138.19;4986973;28;20497;-50
2023/09/24 04:10:08;;;;;;;0.30;0.20;;;;;;;7.68;99.99;101141.72;4982431;28;20818;-50
2023/09/24 04:12:35;;;;;;;0.30;0.20;;;;;;;7.71;99.92;101141.72;4992824;28;20540;-49
2023/09/24 04:15:02;;;;;;;0.30;0.20;;;;;;;7.69;100.00;101145.25;4982503;28;20986;-50
2023/09/24 04:17:29;;;;;;;0.30;0.20;;;;;;;7.57;99.71;101153.22;4984421;28;20453;-50
2023/09/24 04:19:55;;;;;;;0.30;0.20;;;;;;;7.56;100.00;101159.41;4988450;28;20508;-49
2023/09/24 04:22:22;;;;;;;0.30;0.20;;;;;;;7.54;100.00;101161.13;4987398;28;20544;-50
2023/09/24 04:24:53;;;;;;;0.30;0.20;;;;;;;7.46;100.00;101163.81;4982777;28;20549;-49
2023/09/24 04:27:21;;;;;;;0.30;0.20;;;;;;;7.37;100.00;101174.41;4982843;28;20898;-50
2023/09/24 04:29:48;;;;;;;0.30;0.20;;;;;;;7.46;100.00;101174.41;4988970;28;20482;-49
2023/09/24 04:32:15;;;;;;;0.30;0.20;;;;;;;7.49;100.00;101184.09;4988401;28;20450;-49
2023/09/24 04:34:46;;;;;;;0.30;0.20;;;;;;;7.51;100.00;101191.13;4982075;28;20536;-51
2023/09/24 04:37:17;;;;;;;0.30;0.20;;;;;;;7.43;99.72;101196.44;4982001;28;20453;-50
2023/09/24 04:39:45;;;;;;;0.30;0.20;;;;;;;7.30;99.25;101199.09;4988060;28;20912;-50
2023/09/24 04:42:12;;;;;;;0.30;0.20;;;;;;;7.30;98.41;101202.63;4988530;28;20519;-52
2023/09/24 04:44:38;;;;;;;0.30;0.20;;;;;;;7.26;99.06;101197.31;4982974;28;20456;-50
2023/09/24 04:47:05;;;;;;;0.30;0.20;;;;;;;7.15;99.41;101209.69;4981932;28;20952;-50
2023/09/24 04:49:31;;;;;;;0.30;0.20;;;;;;;7.18;99.08;101202.63;4987343;28;20460;-49
2023/09/24 04:51:58;;;;;;;0.30;0.20;;;;;;;7.23;99.18;101211.44;4988400;28;20456;-50
2023/09/24 04:54:24;;;;;;;0.30;0.20;;;;;;;7.22;99.33;101208.78;4983784;28;20464;-49
2023/09/24 04:56:51;;;;;;;0.30;0.20;;;;;;;7.31;99.30;101212.31;4981476;28;20557;-52
2023/09/24 04:59:18;;;;;;;0.30;0.20;;;;;;;7.34;100.00;101214.06;4980680;28;20447;-50
2023/09/24 05:01:44;;;;;;;0.30;0.20;;;;;;;7.31;100.00;101212.31;4988425;28;20445;-50
2023/09/24 05:04:11;;;;;;;0.30;0.20;;;;;;;7.33;99.32;101213.19;4983973;28;20489;-50
2023/09/24 05:06:37;;;;;;;0.30;0.20;;;;;;;7.26;99.36;101213.19;4981313;28;20477;-50
2023/09/24 05:09:04;;;;;;;0.30;0.20;;;;;;;7.12;99.24;101226.41;4985924;28;20865;-50
2023/09/24 05:11:30;;;;;;;0.30;0.20;;;;;;;7.05;99.42;101228.19;4981305;28;20470;-52
2023/09/24 05:13:57;;;;;;;0.30;0.20;;;;;;;7.03;99.35;101229.06;4981763;28;20454;-51
2023/09/24 05:16:23;;;;;;;0.30;0.20;;;;;;;7.10;100.00;101234.34;4981476;28;20521;-50
2023/09/24 05:18:50;;;;;;;0.30;0.20;;;;;;;7.18;100.00;101242.28;4985477;28;20818;-50
2023/09/24 05:21:18;;;;;;;0.30;0.20;;;;;;;7.25;99.98;101244.03;4988016;28;20540;-50
2023/09/24 05:23:46;;;;;;;0.30;0.20;;;;;;;7.31;99.70;101243.19;4984253;28;20981;-50
2023/09/24 05:26:14;;;;;;;0.30;0.20;;;;;;;7.37;99.21;101251.97;4981042;28;20552;-50
2023/09/24 05:28:41;;;;;;;0.30;0.20;;;;;;;7.12;99.14;101253.72;4984845;28;20541;-50
2023/09/24 05:31:09;;;;;;;0.30;0.20;;;;;;;7.26;99.36;101261.66;4988124;28;20454;-50
2023/09/24 05:33:36;;;;;;;0.30;0.20;;;;;;;7.20;99.49;101260.78;4984124;28;20449;-50
2023/09/24 05:36:03;;;;;;;0.30;0.20;;;;;;;7.09;99.54;101263.41;4981194;28;20501;-50
2023/09/24 05:38:30;;;;;;;0.30;0.20;;;;;;;7.18;100.00;101270.50;4983423;28;20538;-50
2023/09/24 05:40:57;;;;;;;0.30;0.20;;;;;;;7.29;100.00;101268.75;4967053;28;20449;-50
2023/09/24 05:43:23;;;;;;;0.30;0.20;;;;;;;7.40;99.15;101280.19;4985728;28;20454;-50
2023/09/24 05:45:50;;;;;;;0.30;0.20;;;;;;;7.30;99.50;101284.59;4980721;28;20480;-50
2023/09/24 05:48:17;;;;;;;0.30;0.20;;;;;;;7.46;99.11;101288.13;4983377;28;20494;-50
2023/09/24 05:50:45;;;;;;;0.30;0.20;;;;;;;7.55;99.06;101288.16;4987398;28;20454;-50
2023/09/24 05:53:13;;;;;;;0.30;0.20;;;;;;;7.66;99.59;101296.06;4985355;28;20461;-50
2023/09/24 05:55:39;;;;;;;0.30;0.20;;;;;;;7.60;100.00;101289.00;4980778;28;20473;-50
2023/09/24 05:58:06;;;;;;;0.30;0.20;;;;;;;7.69;99.30;101283.72;4982355;28;20979;-51
2023/09/24 06:00:37;;;;;;;0.30;0.20;;;;;;;7.71;99.91;101292.53;4979299;28;20592;-50
2023/09/24 06:03:04;;;;;;;0.30;0.20;;;;;;;7.89;99.64;101301.34;4981837;28;20716;-50
2023/09/24 06:05:30;;;;;;;0.30;0.20;;;;;;;8.03;99.45;101305.72;4986378;28;20482;-50
2023/09/24 06:07:57;;;;;;;0.30;0.20;;;;;;;8.07;100.00;101313.66;4987975;28;21052;-50
2023/09/24 06:10:23;;;;;;;0.30;0.20;;;;;;;8.22;100.00;101321.56;4981420;28;20450;-50
2023/09/24 06:12:50;;;;;;;0.30;0.20;;;;;;;8.35;100.00;101315.38;4971497;28;20462;-52
2023/09/24 06:15:17;;;;;;;0.30;0.20;;;;;;;8.54;100.00;101317.09;4986921;28;21063;-50
2023/09/24 06:17:44;;;;;;;0.30;0.20;;;;;;;8.56;100.00;101325.94;4986868;28;20857;-50
2023/09/24 06:20:11;;;;;;;0.30;0.20;;;;;;;8.58;100.00;101320.63;4981041;28;20454;-50
2023/09/24 06:22:38;;;;;;;0.30;0.20;;;;;;;8.70;100.00;101315.25;4980317;28;20458;-50
2023/09/24 06:25:05;;;;;;;0.30;0.20;;;;;;;8.79;100.00;101317.88;4986033;28;20474;-50
2023/09/24 06:27:31;;;;;;;0.30;0.20;;;;;;;8.80;100.00;101316.13;4986681;28;20971;-50
2023/09/24 06:29:58;;;;;;;0.30;0.20;;;;;;;9.02;100.00;101314.22;4981276;28;20453;-50
2023/09/24 06:32:28;;;;;;;0.30;0.20;;;;;;;9.09;100.00;101322.13;4979963;28;20461;-50
2023/09/24 06:34:55;;;;;;;0.30;0.20;;;;;;;9.23;100.00;101326.47;4967701;28;20446;-50
2023/09/24 06:37:22;;;;;;;0.30;0.20;;;;;;;9.49;99.15;101319.22;4986669;28;20449;-49
2023/09/24 06:39:48;;;;;;;0.30;0.20;;;;;;;9.57;100.00;101317.38;4971515;28;20456;-50
2023/09/24 06:42:15;;;;;;;0.30;0.20;;;;;;;9.76;99.88;101326.09;4982344;28;20445;-50
2023/09/24 06:44:41;;;;;;;0.30;0.20;;;;;;;9.72;100.00;101327.84;4981823;28;20462;-49
2023/09/24 06:47:08;;;;;;;0.30;0.20;;;;;;;9.74;100.00;101331.41;4979901;28;20501;-49
2023/09/24 06:49:34;;;;;;;0.30;0.20;;;;;;;10.00;100.00;101327.63;4984217;28;20497;-49
2023/09/24 06:52:01;;;;;;;0.30;0.20;;;;;;;10.13;100.00;101331.91;4986436;28;20453;-49
2023/09/24 06:54:28;;;;;;;0.30;0.20;;;;;;;10.23;100.00;101336.28;4982694;28;20540;-49
2023/09/24 06:56:55;;;;;;;0.30;0.20;;;;;;;10.29;100.00;101336.22;4979850;28;20549;-49
2023/09/24 06:59:21;;;;;;;0.30;0.20;;;;;;;10.55;100.00;101343.00;4978288;28;20446;-49
2023/09/24 07:01:48;;;;;;;0.30;0.20;;;;;;;10.83;99.51;101341.81;4986750;28;20521;-49
2023/09/24 07:04:15;;;;;;;0.30;0.20;;;;;;;10.82;99.55;101337.38;4982744;28;20504;-49
2023/09/24 07:06:42;;;;;;;0.30;0.20;;;;;;;10.83;99.43;101333.84;4979509;28;20828;-51
2023/09/24 07:09:09;;;;;;;0.30;0.20;;;;;;;11.04;98.93;101327.31;4983501;28;20875;-50
2023/09/24 07:11:38;;;;;;;0.30;0.20;;;;;;;11.04;99.91;101331.78;4986093;28;20465;-51
2023/09/24 07:14:05;;;;;;;0.30;0.20;;;;;;;11.26;98.14;101331.47;4983265;28;20529;-51
2023/09/24 07:16:32;;;;;;;0.97;0.97;;;;;;;11.06;98.90;101330.84;4985882;28;20850;-50
2023/09/24 07:18:59;;;;;;;0.30;0.20;;;;;;;11.51;98.05;101328.41;4983314;28;20859;-51
2023/09/24 07:21:28;;;;;;;0.30;0.20;;;;;;;11.27;98.14;101335.00;4979532;28;20533;-51
2023/09/24 07:24:01;;;;;;;0.30;0.20;;;;;;;11.18;98.88;101345.75;4981525;28;20460;-51
2023/09/24 07:26:28;;;;;;;0.30;0.20;;;;;;;11.23;99.59;101350.09;4986390;28;20485;-51
2023/09/24 07:28:55;;;;;;;0.30;0.20;;;;;;;11.83;97.39;101338.59;4984757;28;20500;-51
2023/09/24 07:31:23;;;;;;;0.30;0.20;;;;;;;11.51;97.53;101334.63;4979512;28;20453;-52
2023/09/24 07:33:55;;;;;;;0.40;0.20;;;;;;;11.44;98.47;101338.28;4980850;28;20455;-51
2023/09/24 07:36:22;;;;;;;0.30;0.20;;;;;;;11.53;98.80;101343.47;4986172;28;20479;-51
2023/09/24 07:38:59;;;;;;;0.30;0.20;;;;;;;12.19;96.62;101350.38;4986154;28;20448;-51
2023/09/24 07:41:26;;;;;;;0.30;0.20;;;;;;;11.78;97.52;101359.91;4980540;28;20453;-52
2023/09/24 07:43:53;;;;;;;0.30;0.20;;;;;;;11.90;97.76;101350.00;4979126;28;20528;-52
2023/09/24 07:46:20;;;;;;;0.30;0.20;;;;;;;11.94;98.07;101344.63;4984893;28;20469;-49
2023/09/24 07:48:48;;;;;;;0.30;0.20;;;;;;;12.04;98.19;101353.31;4986030;28;20580;-51
2023/09/24 07:51:19;;;;;;;0.40;0.20;;;;;;;12.17;97.22;101352.19;4981391;28;20812;-49
2023/09/24 07:53:46;;;;;;;0.30;0.20;;;;;;;12.24;97.65;101348.50;4979143;28;20502;-49
2023/09/24 07:56:13;;;;;;;0.40;0.20;;;;;;;12.23;97.01;101341.44;4985077;28;21006;-49
2023/09/24 07:58:41;;;;;;;0.37;0.20;;;;;;;12.51;96.91;101351.56;4982700;28;20509;-49
2023/09/24 08:01:10;;;;;;;0.40;0.20;;;;;;;12.52;96.76;101354.22;4985567;28;20453;-49
2023/09/24 08:03:37;;;;;;;0.40;0.20;;;;;;;12.67;96.86;101356.56;4982986;28;20458;-49
2023/09/24 08:06:05;;;;;;;0.40;0.20;;;;;;;12.66;96.23;101357.47;4985000;28;20470;-49
2023/09/24 08:08:34;;;;;;;0.40;0.20;;;;;;;12.72;97.22;101353.78;4989061;28;20494;-49
2023/09/24 08:11:17;;;;;;;0.40;0.20;;;;;;;12.84;95.75;101350.88;4986828;28;20472;-49
2023/09/24 08:13:44;;;;;;;0.40;0.20;;;;;;;13.27;94.62;101353.53;4988540;28;20944;-49
2023/09/24 08:16:10;;;;;;;0.40;0.20;;;;;;;13.30;95.17;101355.28;4989250;28;20555;-49
2023/09/24 08:18:37;;;;;;;0.40;0.20;;;;;;;13.38;93.70;101350.63;4983355;28;20449;-50
2023/09/24 08:21:04;;;;;;;0.40;0.20;;;;;;;13.15;94.79;101353.75;4982608;28;20493;-50
2023/09/24 08:23:31;;;;;;;0.40;0.20;;;;;;;13.47;93.97;101346.88;4988483;28;20451;-50
2023/09/24 08:25:59;;;;;;;0.40;0.20;;;;;;;13.88;93.48;101346.75;4988938;28;20473;-50
2023/09/24 08:28:26;;;;;;;0.40;0.20;;;;;;;13.82;93.22;101354.00;4984060;28;20493;-49
2023/09/24 08:30:53;;;;;;;0.40;0.20;;;;;;;13.86;93.31;101353.91;4981960;28;20541;-50
2023/09/24 08:33:19;;;;;;;0.40;0.20;;;;;;;13.78;92.75;101350.53;4987336;28;20486;-50
2023/09/24 08:35:46;;;;;;;0.40;0.20;;;;;;;13.80;93.70;101359.41;4988558;28;20561;-50
2023/09/24 08:38:13;;;;;;;0.40;0.20;;;;;;;14.16;92.60;101351.38;4984029;28;20456;-50
2023/09/24 08:40:40;;;;;;;0.40;0.20;;;;;;;13.82;93.17;101360.22;4982257;28;20865;-49
2023/09/24 08:43:15;;;;;;;0.40;0.20;;;;;;;13.87;92.95;101368.16;4986659;28;20457;-50
2023/09/24 08:45:41;;;;;;;0.40;0.20;;;;;;;13.94;93.23;101356.38;4988663;28;20524;-49
2023/09/24 08:48:09;;;;;;;0.40;0.20;;;;;;;14.12;92.75;101363.97;4985068;28;20504;-49
2023/09/24 08:50:37;;;;;;;0.40;0.20;;;;;;;14.35;91.80;101360.66;4981947;28;20971;-49
2023/09/24 08:53:10;;;;;;;0.40;0.20;;;;;;;14.55;91.76;101353.94;4984575;28;20451;-51
2023/09/24 08:55:40;;;;;;;0.40;0.20;;;;;;;15.05;91.22;101355.13;4988440;28;20470;-50
2023/09/24 08:58:07;;;;;;;0.40;0.20;;;;;;;14.90;90.92;101364.50;4982734;28;20525;-49
2023/09/24 09:00:34;;;;;;;0.40;0.20;;;;;;;15.08;89.26;101361.28;4980922;28;20450;-50
2023/09/24 09:03:03;;;;;;;0.40;0.20;;;;;;;15.04;89.79;101359.59;4982258;28;20549;-50
2023/09/24 09:05:35;;;;;;;0.40;0.20;;;;;;;15.23;90.69;101354.59;4962748;28;20486;-50
2023/09/24 09:08:03;;;;;;;0.40;0.20;;;;;;;15.32;89.09;101359.63;4987936;28;20510;-50
2023/09/24 09:10:32;;;;;;;0.40;0.20;;;;;;;15.15;89.64;101350.38;4982185;28;20580;-50
2023/09/24 09:13:13;;;;;;;0.40;0.20;;;;;;;15.46;88.66;101345.81;4973098;28;20640;-50
2023/09/24 09:15:42;;;;;;;0.40;0.20;;;;;;;15.76;87.46;101348.47;4985030;28;20556;-50
2023/09/24 09:18:25;;;;;;;0.40;0.20;;;;;;;15.65;87.26;101336.31;4981493;28;20453;-50
2023/09/24 09:21:00;;;;;;;0.40;0.20;;;;;;;15.93;86.92;101335.38;4981826;28;20454;-50
2023/09/24 09:23:35;;;;;;;0.40;0.20;;;;;;;15.85;86.52;101341.00;4970497;28;20451;-50
2023/09/24 09:26:05;;;;;;;0.40;0.20;;;;;;;16.27;86.05;101337.75;4981325;28;20568;-50
2023/09/24 09:28:34;;;;;;;0.40;0.20;;;;;;;16.23;85.17;101334.31;4985397;28;20545;-50
2023/09/24 09:31:08;;;;;;;0.40;0.20;;;;;;;16.55;84.99;101335.84;4987900;28;20505;-52
2023/09/24 09:33:40;;;;;;;0.40;0.20;;;;;;;16.66;84.30;101335.47;4985418;28;20468;-50
2023/09/24 09:36:19;;;;;;;0.40;0.20;;;;;;;16.74;83.70;101330.72;4980747;28;20470;-50
2023/09/24 09:38:45;;;;;;;0.40;0.20;;;;;;;16.93;84.20;101333.56;4981075;28;20457;-49
2023/09/24 09:41:16;;;;;;;0.40;0.20;;;;;;;17.03;84.48;101323.38;4967518;28;20845;-51
2023/09/24 09:43:46;;;;;;;0.40;0.20;;;;;;;17.46;83.70;101317.16;4987469;28;20457;-48
2023/09/24 09:46:18;;;;;;;0.40;0.20;;;;;;;17.33;83.34;101319.47;4982265;28;20565;-49
2023/09/24 09:48:56;;;;;;;0.40;0.20;;;;;;;17.26;82.69;101317.94;4980393;28;20494;-48
2023/09/24 09:51:24;;;;;;;0.40;0.20;;;;;;;17.58;81.70;101310.41;4983534;28;20502;-48
2023/09/24 09:53:54;;;;;;;0.40;0.20;;;;;;;17.36;81.94;101305.03;4987462;28;20454;-48
2023/09/24 09:56:22;;;;;;;0.40;0.20;;;;;;;17.33;81.95;101307.84;4985487;28;20466;-48
2023/09/24 09:58:51;;;;;;;0.40;0.20;;;;;;;17.20;81.32;101303.88;4975461;28;20454;-50
2023/09/24 10:01:20;;;;;;;0.40;0.20;;;;;;;17.27;81.65;101306.28;4986139;28;20450;-49
2023/09/24 10:03:52;;;;;;;0.40;0.20;;;;;;;17.52;81.36;101303.44;4980782;28;20453;-50
2023/09/24 10:06:20;;;;;;;0.40;0.20;;;;;;;17.45;81.77;101301.97;4980244;28;20461;-49
2023/09/24 10:08:50;;;;;;;0.40;0.20;;;;;;;17.78;81.59;101288.97;4967561;28;20463;-49
2023/09/24 10:11:32;;;;;;;0.40;0.20;;;;;;;18.21;78.80;101290.66;4969527;28;20459;-50
2023/09/24 10:14:05;;;;;;;0.40;0.20;;;;;;;18.18;77.27;101289.94;4971467;28;20478;-49
2023/09/24 10:16:35;;;;;;;0.40;0.20;;;;;;;18.67;77.12;101283.25;4972316;28;20478;-50
2023/09/24 10:19:05;;;;;;;0.40;0.20;;;;;;;18.05;77.13;101285.09;4971281;28;20920;-49
2023/09/24 10:21:43;;;;;;;0.40;0.20;;;;;;;18.10;74.87;101275.97;4983916;28;20515;-51
2023/09/24 10:24:13;;;;;;;0.40;0.20;;;;;;;18.29;75.05;101275.06;4980753;28;20514;-52
2023/09/24 10:26:47;;;;;;;0.40;0.20;;;;;;;18.63;74.40;101269.03;4968855;28;20528;-50
2023/09/24 10:29:18;;;;;;;0.40;0.20;;;;;;;19.02;72.90;101265.41;4980137;28;20575;-49
2023/09/24 10:32:07;;;;;;;0.40;0.20;;;;;;;19.27;72.73;101264.22;4993543;28;20525;-50
2023/09/24 10:34:52;;;;;;;0.40;0.20;;;;;;;18.93;71.08;101263.19;4979979;28;20446;-50
2023/09/24 10:37:20;;;;;;;0.40;0.20;;;;;;;19.06;71.08;101256.25;4979522;28;20454;-49
2023/09/24 10:40:05;;;;;;;0.40;0.20;;;;;;;19.27;70.28;101262.41;4966151;28;20436;-50
2023/09/24 10:42:33;;;;;;;0.40;0.20;;;;;;;19.43;68.65;101251.72;4967510;28;20454;-50
2023/09/24 10:45:06;;;;;;;0.40;0.20;;;;;;;19.20;68.46;101250.19;4972831;28;20517;-49
2023/09/24 10:47:34;;;;;;;0.40;0.20;;;;;;;19.16;69.22;101246.75;4992461;28;20894;-50
2023/09/24 10:50:09;;;;;;;0.40;0.20;;;;;;;19.46;66.53;101243.47;4980700;28;20615;-49
2023/09/24 10:52:55;;;;;;;0.40;0.20;;;;;;;19.75;63.47;101242.06;4968224;28;20484;-50
2023/09/24 10:55:30;;;;;;;0.40;0.20;;;;;;;19.97;64.66;101247.19;4973960;28;20461;-50
2023/09/24 10:57:59;;;;;;;0.40;0.20;;;;;;;20.01;62.26;101246.97;4960768;28;20441;-50
2023/09/24 11:00:26;;;;;;;0.40;0.20;;;;;;;19.91;63.83;101236.75;4973755;28;20476;-50
2023/09/24 11:02:58;;;;;;;0.40;0.20;;;;;;;20.34;64.46;101238.91;4984794;28;20481;-50
2023/09/24 11:05:27;;;;;;;0.40;0.20;;;;;;;20.27;63.75;101237.47;4987395;28;20458;-49
2023/09/24 11:07:54;;;;;;;0.40;0.20;;;;;;;20.22;64.81;101236.88;4985747;28;20424;-50
2023/09/24 11:10:23;;;;;;;0.40;0.20;;;;;;;19.65;66.17;101233.56;4979550;28;20464;-49
2023/09/24 11:13:01;;;;;;;0.40;0.20;;;;;;;20.07;64.87;101237.69;4964207;28;20442;-50
2023/09/24 11:15:33;;;;;;;0.40;0.20;;;;;;;20.17;63.00;101241.66;4972769;28;20472;-50
2023/09/24 11:18:00;;;;;;;0.40;0.20;;;;;;;20.17;60.41;101238.06;4988118;28;20461;-50
2023/09/24 11:20:32;;;;;;;0.40;0.30;;;;;;;20.20;60.13;101244.19;4971107;28;20448;-50
2023/09/24 11:23:03;;;;;;;0.40;0.20;;;;;;;20.41;61.27;101226.84;4983008;28;20484;-50
2023/09/24 11:25:30;;;;;;;0.40;0.20;;;;;;;19.49;65.36;101224.47;4983316;28;20497;-50
2023/09/24 11:28:00;;;;;;;0.40;0.20;;;;;;;19.43;65.51;101231.03;4979740;28;20874;-49
2023/09/24 11:30:48;;;;;;;0.40;0.20;;;;;;;19.89;64.70;101223.34;4976006;28;20514;-50
2023/09/24 11:33:22;;;;;;;0.40;0.20;;;;;;;20.40;63.56;101221.47;4971992;28;20428;-49
2023/09/24 11:35:50;;;;;;;0.40;0.20;;;;;;;20.74;61.17;101216.97;4981737;28;20471;-49